This is the latest recevied weather packets stored in our database for station/object SA5VCC-15. If no packets are shown the sender has not sent any weather packets the latest 10 day(s).
| Time | Temp. | Humidity | Pressure | Rain* | Wind** | Luminosity | Snow |
|---|---|---|---|---|---|---|---|
| 1777831350 | -17.78° C | - | - | - | - | - | - |
| 1777831254 | 18.89° C | 34% | 1004.6 hPa | - | - | - | - |
| 1777831241 | -17.78° C | - | - | - | - | - | - |
| 1777831111 | 18.89° C | 34% | 1004.6 hPa | - | - | - | - |
| 1777830793 | 18.89° C | 34% | 1004.6 hPa | - | - | - | - |
| 1777830770 | 18.33° C | 36% | 1004.6 hPa | - | - | - | - |
| 1777830369 | 16.67° C | 38% | 1004.7 hPa | - | - | - | - |
| 1777830329 | 16.11° C | 39% | 1004.7 hPa | - | - | - | - |
| 1777820678 | 12.78° C | 43% | 1005.5 hPa | - | - | - | - |
| 1777819406 | 13.89° C | 42% | 1005.6 hPa | - | - | - | - |
| 1777818134 | 13.89° C | 40% | 1005.8 hPa | - | - | - | - |
| 1777816862 | 13.33° C | 41% | 1006 hPa | - | - | - | - |
| 1777815590 | 12.78° C | 42% | 1006.1 hPa | - | - | - | - |
| 1777814318 | 13.33° C | 41% | 1006.4 hPa | - | - | - | - |
| 1777813046 | 11.11° C | 44% | 1006.7 hPa | - | - | - | - |
| 1777811774 | 12.22° C | 42% | 1006.8 hPa | - | - | - | - |
| 1777811749 | 12.22° C | 42% | 1006.8 hPa | - | - | - | - |
| 1777810888 | 10.56° C | 45% | 1007 hPa | - | - | - | - |
| 1777809628 | 11.67° C | 43% | 1007.1 hPa | - | - | - | - |
| 1777808368 | 11.11° C | 42% | 1007.3 hPa | - | - | - | - |
| 1777807108 | 10.56° C | 41% | 1007.1 hPa | - | - | - | - |
| 1777807064 | 11.67° C | 40% | 1007.1 hPa | - | - | - | - |
| 1777807016 | 14.44° C | 34% | 1007 hPa | - | - | - | - |
| 1777806685 | -17.78° C | - | - | - | - | - | - |
| 1777805425 | -17.78° C | - | - | - | - | - | - |
* Rain since midnight (hover to see other rain measurements)
** Current wind speed in m/s (hover to see current wind gust speed)